createdAt,value
2022-09-03T00:00:56.716Z,14.30
2022-09-03T00:03:43.402Z,14.30
2022-09-03T00:06:23.304Z,14.30
2022-09-03T00:09:22.468Z,14.30
2022-09-03T00:12:08.681Z,14.30
2022-09-03T00:14:47.849Z,14.30
2022-09-03T00:17:16.731Z,14.20
2022-09-03T00:19:52.188Z,14.20
2022-09-03T00:22:21.858Z,14.20
2022-09-03T00:24:50.080Z,14.20
2022-09-03T00:27:25.112Z,14.20
2022-09-03T00:30:16.941Z,14.20
2022-09-03T00:33:06.914Z,14.20
2022-09-03T00:35:49.621Z,14.20
2022-09-03T00:38:16.798Z,14.20
2022-09-03T00:41:06.895Z,14.10
2022-09-03T00:43:40.125Z,14.10
2022-09-03T00:46:28.854Z,14.10
2022-09-03T00:49:12.350Z,14.10
2022-09-03T00:51:53.929Z,14.00
2022-09-03T00:54:40.847Z,14.00
2022-09-03T00:57:15.618Z,14.00
2022-09-03T00:59:51.919Z,14.00
2022-09-03T01:02:39.767Z,13.90
2022-09-03T01:05:18.886Z,13.90
2022-09-03T01:08:04.888Z,13.90
2022-09-03T01:10:50.809Z,13.90
2022-09-03T01:13:33.017Z,13.90
2022-09-03T01:16:16.244Z,13.90
2022-09-03T01:18:52.095Z,13.90
2022-09-03T01:21:47.542Z,13.90
2022-09-03T01:24:31.648Z,13.90
2022-09-03T01:27:36.443Z,13.80
2022-09-03T01:30:07.930Z,13.80
2022-09-03T01:32:43.854Z,13.80
2022-09-03T01:35:24.217Z,13.80
2022-09-03T01:38:12.828Z,13.80
2022-09-03T01:40:47.889Z,13.70
2022-09-03T01:43:34.120Z,13.70
2022-09-03T01:46:20.093Z,13.60
2022-09-03T01:49:04.486Z,13.60
2022-09-03T01:51:31.858Z,13.50
2022-09-03T01:54:20.750Z,13.50
2022-09-03T01:57:36.910Z,13.50
2022-09-03T02:00:06.913Z,13.50
2022-09-03T02:02:44.350Z,13.50
2022-09-03T02:05:25.900Z,13.50
2022-09-03T02:08:08.762Z,13.50
2022-09-03T02:11:06.890Z,13.50
2022-09-03T02:13:54.906Z,13.40
2022-09-03T02:16:24.313Z,13.40
2022-09-03T02:18:54.507Z,13.50
2022-09-03T02:21:22.709Z,13.50
2022-09-03T02:23:50.022Z,13.40
2022-09-03T02:26:21.439Z,13.40
2022-09-03T02:28:48.877Z,13.40
2022-09-03T02:31:16.144Z,13.40
2022-09-03T02:33:45.582Z,13.40
2022-09-03T02:36:15.183Z,13.30
2022-09-03T02:38:43.351Z,13.30
2022-09-03T02:41:13.326Z,13.30
2022-09-03T02:43:50.398Z,13.20
2022-09-03T02:46:23.431Z,13.20
2022-09-03T02:48:50.671Z,13.20
2022-09-03T02:51:17.858Z,13.20
2022-09-03T02:53:45.074Z,13.10
2022-09-03T02:56:12.508Z,13.10
2022-09-03T02:58:39.710Z,13.10
2022-09-03T03:01:07.006Z,13.10
2022-09-03T03:03:34.650Z,13.10
2022-09-03T03:06:02.819Z,13.10
2022-09-03T03:08:30.394Z,13.00
2022-09-03T03:10:59.213Z,13.00
2022-09-03T03:13:30.001Z,13.00
2022-09-03T03:16:00.961Z,13.00
2022-09-03T03:18:29.721Z,13.00
2022-09-03T03:20:56.928Z,12.90
2022-09-03T03:23:24.127Z,12.90
2022-09-03T03:25:51.292Z,12.90
2022-09-03T03:28:20.227Z,12.80
2022-09-03T03:30:48.895Z,12.80
2022-09-03T03:33:16.231Z,12.80
2022-09-03T03:35:43.601Z,12.80
2022-09-03T03:38:10.862Z,12.80
2022-09-03T03:40:41.083Z,12.70
2022-09-03T03:43:08.317Z,12.70
2022-09-03T03:45:35.540Z,12.80
2022-09-03T03:48:02.995Z,12.70
2022-09-03T03:50:30.206Z,12.70
2022-09-03T03:53:00.623Z,12.70
2022-09-03T03:55:28.904Z,12.60
2022-09-03T03:58:02.123Z,12.70
2022-09-03T04:00:29.658Z,12.60
2022-09-03T04:02:56.954Z,12.60
2022-09-03T04:05:24.237Z,12.60
2022-09-03T04:07:51.396Z,12.60
2022-09-03T04:10:18.569Z,12.50
2022-09-03T04:12:45.744Z,12.50
2022-09-03T04:15:12.978Z,12.50
2022-09-03T04:17:40.175Z,12.50
2022-09-03T04:20:07.566Z,12.50
2022-09-03T04:22:34.734Z,12.50
2022-09-03T04:25:01.915Z,12.40
2022-09-03T04:27:29.086Z,12.50
2022-09-03T04:29:56.356Z,12.40
2022-09-03T04:32:42.058Z,12.40
2022-09-03T04:35:09.443Z,12.50
2022-09-03T04:37:36.691Z,12.50
2022-09-03T04:40:04.773Z,12.50
2022-09-03T04:42:32.005Z,12.50
2022-09-03T04:44:59.182Z,12.60
2022-09-03T04:47:28.023Z,12.60
2022-09-03T04:49:55.224Z,12.60
2022-09-03T04:52:22.392Z,12.60
2022-09-03T04:54:49.832Z,12.70
2022-09-03T04:57:17.003Z,12.70
2022-09-03T04:59:44.985Z,12.80
2022-09-03T05:02:15.651Z,12.80
2022-09-03T05:04:42.966Z,12.80
2022-09-03T05:07:10.106Z,12.80
2022-09-03T05:09:37.323Z,12.90
2022-09-03T05:12:04.701Z,12.90
2022-09-03T05:14:32.686Z,12.90
2022-09-03T05:16:59.905Z,12.90
2022-09-03T05:19:27.202Z,12.90
2022-09-03T05:21:54.437Z,13.00
2022-09-03T05:24:22.014Z,13.00
2022-09-03T05:26:49.179Z,13.00
2022-09-03T05:29:16.419Z,13.10
2022-09-03T05:31:43.835Z,13.10
2022-09-03T05:34:16.411Z,13.10
2022-09-03T05:36:46.918Z,13.20
2022-09-03T05:39:14.076Z,13.30
2022-09-03T05:41:41.261Z,13.30
2022-09-03T05:44:08.451Z,13.30
2022-09-03T05:46:37.731Z,13.30
2022-09-03T05:49:06.070Z,13.40
2022-09-03T05:51:33.812Z,13.40
2022-09-03T05:54:01.755Z,13.40
2022-09-03T05:56:30.391Z,13.40
2022-09-03T05:59:01.039Z,13.40
2022-09-03T06:01:38.829Z,13.40
2022-09-03T06:04:07.729Z,13.50
2022-09-03T06:06:37.056Z,13.50
2022-09-03T06:09:06.191Z,13.50
2022-09-03T06:11:35.273Z,13.50
2022-09-03T06:14:08.042Z,13.50
2022-09-03T06:16:42.578Z,13.50
2022-09-03T06:19:10.799Z,13.50
2022-09-03T06:21:42.707Z,13.60
2022-09-03T06:24:12.073Z,13.60
2022-09-03T06:26:40.015Z,13.60
2022-09-03T06:29:10.651Z,13.70
2022-09-03T06:31:37.946Z,13.70
2022-09-03T06:34:05.998Z,13.70
2022-09-03T06:36:33.630Z,13.70
2022-09-03T06:39:01.378Z,13.70
2022-09-03T06:41:33.184Z,13.70
2022-09-03T06:44:03.064Z,13.70
2022-09-03T06:46:31.913Z,13.70
2022-09-03T06:48:59.151Z,13.80
2022-09-03T06:51:27.587Z,13.80
2022-09-03T06:53:59.417Z,13.70
2022-09-03T06:56:26.973Z,13.80
2022-09-03T06:58:55.842Z,13.80
2022-09-03T07:01:33.359Z,13.80
2022-09-03T07:04:02.088Z,13.90
2022-09-03T07:06:33.946Z,13.90
2022-09-03T07:09:01.172Z,13.90
2022-09-03T07:11:30.672Z,13.90
2022-09-03T07:13:58.077Z,13.90
2022-09-03T07:16:43.786Z,13.90
2022-09-03T07:19:13.255Z,13.90
2022-09-03T07:21:48.900Z,13.90
2022-09-03T07:24:18.069Z,13.90
2022-09-03T07:26:46.423Z,13.90
2022-09-03T07:29:15.786Z,13.90
2022-09-03T07:31:43.496Z,14.00
2022-09-03T07:34:12.533Z,14.00
2022-09-03T07:36:44.066Z,14.00
2022-09-03T07:39:12.105Z,14.10
2022-09-03T07:41:39.630Z,14.10
2022-09-03T07:44:08.375Z,14.20
2022-09-03T07:46:37.103Z,14.20
2022-09-03T07:49:05.197Z,14.20
2022-09-03T07:51:34.019Z,14.20
2022-09-03T07:54:02.654Z,14.30
2022-09-03T07:56:32.469Z,14.30
2022-09-03T07:58:59.861Z,14.30
2022-09-03T08:01:28.516Z,14.30
2022-09-03T08:03:55.999Z,14.40
2022-09-03T08:06:24.866Z,14.40
2022-09-03T08:09:03.520Z,14.50
2022-09-03T08:11:34.597Z,14.50
2022-09-03T08:14:06.544Z,14.70
2022-09-03T08:16:35.942Z,14.70
2022-09-03T08:19:03.458Z,14.70
2022-09-03T08:21:30.647Z,14.80
2022-09-03T08:24:03.952Z,14.80
2022-09-03T08:26:33.151Z,14.90
2022-09-03T08:29:00.614Z,15.00
2022-09-03T08:31:28.239Z,15.00
2022-09-03T08:33:56.977Z,15.10
2022-09-03T08:36:27.711Z,15.20
2022-09-03T08:38:55.363Z,15.20
2022-09-03T08:41:34.035Z,15.30
2022-09-03T08:44:28.656Z,15.40
2022-09-03T08:47:06.750Z,15.50
2022-09-03T08:49:55.186Z,15.60
2022-09-03T08:52:26.254Z,15.60
2022-09-03T08:54:58.295Z,15.70
2022-09-03T08:57:25.466Z,15.70
2022-09-03T08:59:54.756Z,15.80
2022-09-03T09:02:37.309Z,15.90
2022-09-03T09:05:17.809Z,16.10
2022-09-03T09:08:21.282Z,16.20
2022-09-03T09:10:49.439Z,16.40
2022-09-03T09:13:22.876Z,16.50
2022-09-03T09:16:15.394Z,16.60
2022-09-03T09:19:05.405Z,16.70
2022-09-03T09:21:37.082Z,16.80
2022-09-03T09:24:06.884Z,16.90
2022-09-03T09:26:34.112Z,17.00
2022-09-03T09:29:07.755Z,17.20
2022-09-03T09:31:38.395Z,17.40
2022-09-03T09:34:06.991Z,17.50
2022-09-03T09:36:48.478Z,17.50
2022-09-03T09:39:16.249Z,17.60
2022-09-03T09:41:46.566Z,17.70
2022-09-03T09:44:20.502Z,17.80
2022-09-03T09:46:52.694Z,17.90
2022-09-03T09:49:35.156Z,18.10
2022-09-03T09:52:12.280Z,18.20
2022-09-03T09:54:40.799Z,18.30
2022-09-03T09:57:14.454Z,18.40
2022-09-03T09:59:41.914Z,18.40
2022-09-03T10:02:13.736Z,18.40
2022-09-03T10:04:49.910Z,18.40
2022-09-03T10:07:33.506Z,18.50
2022-09-03T10:10:16.938Z,18.50
2022-09-03T10:12:59.095Z,18.60
2022-09-03T10:15:44.047Z,18.70
2022-09-03T10:18:33.306Z,18.70
2022-09-03T10:21:12.796Z,18.70
2022-09-03T10:24:07.279Z,18.70
2022-09-03T10:26:35.126Z,18.70
2022-09-03T10:29:05.637Z,18.80
2022-09-03T10:31:54.013Z,19.00
2022-09-03T10:34:57.147Z,19.10
2022-09-03T10:37:40.929Z,19.30
2022-09-03T10:40:14.338Z,19.40
2022-09-03T10:43:07.053Z,19.60
2022-09-03T10:45:43.970Z,19.60
2022-09-03T10:48:38.312Z,19.60
2022-09-03T10:51:07.629Z,19.70
2022-09-03T10:53:54.658Z,19.80
2022-09-03T10:56:44.396Z,19.80
2022-09-03T10:59:20.667Z,19.90
2022-09-03T11:02:06.624Z,20.10
2022-09-03T11:04:55.705Z,20.20
2022-09-03T11:07:25.603Z,20.30
2022-09-03T11:10:03.924Z,20.30
2022-09-03T11:12:56.229Z,20.30
2022-09-03T11:15:42.553Z,20.40
2022-09-03T11:18:21.247Z,20.40
2022-09-03T11:20:49.527Z,20.20
2022-09-03T11:23:16.808Z,20.20
2022-09-03T11:25:53.632Z,20.10
2022-09-03T11:28:45.445Z,20.10
2022-09-03T11:31:18.878Z,20.10
2022-09-03T11:33:56.379Z,20.30
2022-09-03T11:36:32.574Z,20.30
2022-09-03T11:39:00.540Z,20.30
2022-09-03T11:41:29.134Z,20.40
2022-09-03T11:43:57.580Z,20.50
2022-09-03T11:46:28.826Z,20.60
2022-09-03T11:49:17.330Z,20.80
2022-09-03T11:51:44.964Z,20.90
2022-09-03T11:54:23.660Z,21.00
2022-09-03T11:56:51.234Z,21.10
2022-09-03T11:59:20.515Z,21.30
2022-09-03T12:01:53.096Z,21.40
2022-09-03T12:04:48.892Z,21.50
2022-09-03T12:07:42.254Z,21.60
2022-09-03T12:10:09.648Z,21.60
2022-09-03T12:12:48.826Z,21.60
2022-09-03T12:15:32.933Z,21.80
2022-09-03T12:18:19.375Z,21.90
2022-09-03T12:20:47.836Z,22.00
2022-09-03T12:23:25.699Z,22.10
2022-09-03T12:25:53.039Z,22.10
2022-09-03T12:28:23.363Z,22.10
2022-09-03T12:30:53.605Z,22.10
2022-09-03T12:33:21.843Z,22.20
2022-09-03T12:35:59.871Z,22.20
2022-09-03T12:38:29.356Z,22.20
2022-09-03T12:43:51.567Z,22.30
2022-09-03T12:46:21.009Z,22.50
2022-09-03T12:52:20.398Z,22.70
2022-09-03T12:54:54.496Z,22.80
2022-09-03T12:57:49.667Z,22.90
2022-09-03T13:00:18.311Z,22.90
2022-09-03T13:03:00.575Z,22.80
2022-09-03T13:05:44.522Z,22.50
2022-09-03T13:08:18.631Z,22.40
2022-09-03T13:10:45.911Z,22.30
2022-09-03T13:13:18.447Z,22.30
2022-09-03T13:16:04.021Z,22.20
2022-09-03T13:18:57.061Z,22.20
2022-09-03T13:21:27.215Z,22.10
2022-09-03T13:24:26.203Z,22.00
2022-09-03T13:27:30.390Z,21.90
2022-09-03T13:30:17.255Z,21.80
2022-09-03T13:32:54.487Z,22.00
2022-09-03T13:35:27.617Z,22.10
2022-09-03T13:38:14.234Z,22.20
2022-09-03T13:41:14.938Z,22.20
2022-09-03T13:43:43.451Z,22.20
2022-09-03T13:46:28.302Z,22.00
2022-09-03T13:49:25.617Z,21.90
2022-09-03T13:51:57.192Z,21.80
2022-09-03T13:57:32.616Z,21.50
2022-09-03T14:00:04.838Z,21.40
2022-09-03T14:02:53.067Z,21.40
2022-09-03T14:05:23.916Z,21.30
2022-09-03T14:08:02.035Z,21.20
2022-09-03T14:10:39.366Z,21.10
2022-09-03T14:13:49.354Z,21.10
2022-09-03T14:16:55.174Z,21.00
2022-09-03T14:19:55.239Z,20.90
2022-09-03T14:22:23.386Z,20.80
2022-09-03T14:24:58.411Z,20.80
2022-09-03T14:27:27.465Z,20.70
2022-09-03T14:30:06.349Z,20.60
2022-09-03T14:32:43.243Z,20.40
2022-09-03T14:35:23.053Z,20.00
2022-09-03T14:38:00.898Z,19.60
2022-09-03T14:40:40.904Z,19.20
2022-09-03T14:43:42.038Z,18.90
2022-09-03T14:46:33.447Z,18.50
2022-09-03T14:49:09.456Z,18.20
2022-09-03T14:52:12.600Z,17.90
2022-09-03T14:54:57.873Z,17.70
2022-09-03T14:57:44.026Z,17.50
2022-09-03T15:00:19.749Z,17.40
2022-09-03T15:02:55.935Z,17.30
2022-09-03T15:05:43.402Z,17.20
2022-09-03T15:08:28.911Z,17.20
2022-09-03T15:14:06.261Z,16.90
2022-09-03T15:17:03.667Z,16.90
2022-09-03T15:19:45.922Z,16.70
2022-09-03T15:22:14.616Z,16.70
2022-09-03T15:25:16.750Z,16.70
2022-09-03T15:27:53.199Z,16.80
2022-09-03T15:30:21.252Z,16.80
2022-09-03T15:33:03.466Z,16.90
2022-09-03T15:35:45.458Z,16.90
2022-09-03T15:38:31.469Z,16.80
2022-09-03T15:41:03.089Z,16.80
2022-09-03T15:43:33.830Z,16.70
2022-09-03T15:46:25.592Z,16.60
2022-09-03T15:49:05.670Z,16.40
2022-09-03T15:51:41.093Z,16.40
2022-09-03T15:54:13.219Z,16.30
2022-09-03T15:56:52.938Z,16.30
2022-09-03T15:59:25.098Z,16.40
2022-09-03T16:02:15.135Z,16.40
2022-09-03T16:05:19.476Z,16.40
2022-09-03T16:07:56.179Z,16.40
2022-09-03T16:10:25.001Z,16.40
2022-09-03T16:12:58.903Z,16.50
2022-09-03T16:15:50.231Z,16.50
2022-09-03T16:18:30.620Z,16.40
2022-09-03T16:21:08.714Z,16.50
2022-09-03T16:24:03.435Z,16.40
2022-09-03T16:26:43.897Z,16.40
2022-09-03T16:29:15.970Z,16.40
2022-09-03T16:31:50.162Z,16.40
2022-09-03T16:34:36.381Z,16.50
2022-09-03T16:37:17.646Z,16.50
2022-09-03T16:40:00.847Z,16.50
2022-09-03T16:43:10.106Z,16.50
2022-09-03T16:46:15.690Z,16.40
2022-09-03T16:49:03.800Z,16.40
2022-09-03T16:51:56.192Z,16.40
2022-09-03T16:54:57.358Z,16.30
2022-09-03T16:57:42.108Z,16.20
2022-09-03T17:00:17.449Z,16.20
2022-09-03T17:03:26.330Z,16.20
2022-09-03T17:06:02.021Z,16.20
2022-09-03T17:08:45.866Z,16.20
2022-09-03T17:11:39.489Z,16.20
2022-09-03T17:14:34.629Z,16.30
2022-09-03T17:17:16.934Z,16.30
2022-09-03T17:20:15.496Z,16.20
2022-09-03T17:23:05.983Z,16.20
2022-09-03T17:25:49.640Z,16.20
2022-09-03T17:28:35.389Z,16.20
2022-09-03T17:31:10.030Z,16.20
2022-09-03T17:33:49.000Z,16.20
2022-09-03T17:36:23.941Z,16.10
2022-09-03T17:39:11.229Z,16.20
2022-09-03T17:41:54.340Z,16.20
2022-09-03T17:44:56.174Z,16.20
2022-09-03T17:47:41.643Z,16.20
2022-09-03T17:50:25.193Z,16.20
2022-09-03T17:52:55.692Z,16.20
2022-09-03T17:55:32.448Z,16.10
2022-09-03T17:58:28.030Z,16.10
2022-09-03T18:01:10.860Z,16.00
2022-09-03T18:04:02.179Z,15.90
2022-09-03T18:06:55.616Z,15.80
2022-09-03T18:09:47.713Z,15.80
2022-09-03T18:12:22.581Z,15.80
2022-09-03T18:14:57.054Z,15.70
2022-09-03T18:17:33.834Z,15.70
2022-09-03T18:20:24.602Z,15.70
2022-09-03T18:23:49.789Z,15.60
2022-09-03T18:26:41.142Z,15.60
2022-09-03T18:29:54.453Z,15.60
2022-09-03T18:32:40.984Z,15.60
2022-09-03T18:35:27.787Z,15.50
2022-09-03T18:38:24.852Z,15.50
2022-09-03T18:41:23.526Z,15.50
2022-09-03T18:44:34.961Z,15.50
2022-09-03T18:48:01.863Z,15.40
2022-09-03T18:51:01.561Z,15.50
2022-09-03T18:54:02.649Z,15.40
2022-09-03T18:57:14.911Z,15.40
2022-09-03T19:00:28.782Z,15.30
2022-09-03T19:03:41.403Z,15.20
2022-09-03T19:06:37.851Z,15.20
2022-09-03T19:09:43.693Z,15.10
2022-09-03T19:12:43.974Z,15.20
2022-09-03T19:15:46.371Z,15.10
2022-09-03T19:18:32.391Z,15.10
2022-09-03T19:21:37.222Z,15.10
2022-09-03T19:24:23.674Z,15.10
2022-09-03T19:27:46.064Z,15.10
2022-09-03T19:30:27.722Z,15.00
2022-09-03T19:33:30.442Z,15.00
2022-09-03T19:36:36.345Z,15.00
2022-09-03T19:39:30.149Z,15.00
2022-09-03T19:42:44.717Z,15.00
2022-09-03T19:45:44.579Z,15.00
2022-09-03T19:48:54.632Z,14.90
2022-09-03T19:51:44.616Z,14.90
2022-09-03T19:54:31.119Z,14.90
2022-09-03T19:57:17.421Z,15.00
2022-09-03T20:00:04.782Z,14.90
2022-09-03T20:03:01.503Z,14.90
2022-09-03T20:05:48.983Z,14.90
2022-09-03T20:08:35.924Z,14.90
2022-09-03T20:11:11.664Z,14.90
2022-09-03T20:14:02.592Z,14.90
2022-09-03T20:16:59.685Z,14.80
2022-09-03T20:19:30.814Z,14.80
2022-09-03T20:22:03.601Z,14.80
2022-09-03T20:25:12.203Z,14.80
2022-09-03T20:27:56.968Z,14.80
2022-09-03T20:30:33.961Z,14.80
2022-09-03T20:33:07.287Z,14.80
2022-09-03T20:35:55.423Z,14.80
2022-09-03T20:38:42.382Z,14.80
2022-09-03T20:41:35.083Z,14.70
2022-09-03T20:44:13.630Z,14.70
2022-09-03T20:46:56.034Z,14.70
2022-09-03T20:49:42.802Z,14.70
2022-09-03T20:52:14.344Z,14.70
2022-09-03T20:54:47.444Z,14.70
2022-09-03T20:57:22.103Z,14.70
2022-09-03T21:00:05.853Z,14.70
2022-09-03T21:03:00.156Z,14.70
2022-09-03T21:05:52.991Z,14.70
2022-09-03T21:08:56.109Z,14.60
2022-09-03T21:11:44.001Z,14.60
2022-09-03T21:14:31.674Z,14.60
2022-09-03T21:17:44.043Z,14.60
2022-09-03T21:20:22.765Z,14.60
2022-09-03T21:23:05.686Z,14.60
2022-09-03T21:25:43.827Z,14.60
2022-09-03T21:28:33.833Z,14.60
2022-09-03T21:31:06.865Z,14.50
2022-09-03T21:33:39.045Z,14.50
2022-09-03T21:36:25.945Z,14.50
2022-09-03T21:39:03.354Z,14.50
2022-09-03T21:41:45.233Z,14.50
2022-09-03T21:44:37.604Z,14.50
2022-09-03T21:47:12.292Z,14.50
2022-09-03T21:50:04.010Z,14.50
2022-09-03T21:52:49.827Z,14.50
2022-09-03T21:55:22.793Z,14.50
2022-09-03T21:57:58.445Z,14.40
2022-09-03T22:00:32.606Z,14.40
2022-09-03T22:03:01.930Z,14.40
2022-09-03T22:05:48.204Z,14.50
2022-09-03T22:08:20.555Z,14.40
2022-09-03T22:10:57.575Z,14.50
2022-09-03T22:13:44.263Z,14.50
2022-09-03T22:16:31.825Z,14.50
2022-09-03T22:18:59.801Z,14.50
2022-09-03T22:21:32.915Z,14.40
2022-09-03T22:24:23.344Z,14.40
2022-09-03T22:26:53.722Z,14.40
2022-09-03T22:29:39.855Z,14.40
2022-09-03T22:32:25.120Z,14.40
2022-09-03T22:35:23.496Z,14.40
2022-09-03T22:37:59.470Z,14.40
2022-09-03T22:40:43.690Z,14.30
2022-09-03T22:43:35.190Z,14.30
2022-09-03T22:46:18.503Z,14.20
2022-09-03T22:49:06.490Z,14.20
2022-09-03T22:51:58.723Z,14.20
2022-09-03T22:54:51.094Z,14.20
2022-09-03T22:57:21.080Z,14.20
2022-09-03T23:00:02.334Z,14.20
2022-09-03T23:02:32.787Z,14.20
2022-09-03T23:05:09.376Z,14.20
2022-09-03T23:07:49.362Z,14.20
2022-09-03T23:10:25.435Z,14.20
2022-09-03T23:13:08.159Z,14.10
2022-09-03T23:15:37.443Z,14.10
2022-09-03T23:18:24.215Z,14.20
2022-09-03T23:21:06.015Z,14.20
2022-09-03T23:23:42.614Z,14.10
2022-09-03T23:26:38.543Z,14.10
2022-09-03T23:29:26.061Z,14.10
2022-09-03T23:31:57.267Z,14.10
2022-09-03T23:34:25.517Z,14.10
2022-09-03T23:37:33.056Z,14.10
2022-09-03T23:40:29.483Z,14.10
2022-09-03T23:43:28.136Z,14.10
2022-09-03T23:46:20.698Z,14.00
2022-09-03T23:49:00.290Z,14.00
2022-09-03T23:51:57.540Z,14.00
2022-09-03T23:54:25.066Z,14.00
2022-09-03T23:57:18.464Z,14.00
2022-09-03T23:59:59.303Z,13.90
